Time;durP1;ratioP1;P1;durP2;ratioP2;P2;SDS_P1;SDS_P2;PMS_P1;PMS_P2;Temp;Humidity;BMP_temperature;BMP_pressure;BME280_temperature;BME280_humidity;BME280_pressure;Samples;Min_cycle;Max_cycle;Signal;HPM_P1;HPM_P2
2022/06/05 00:02:00;;;;;;;3.37;3.27;;;20.60;45.20;;;;;;4981775;28;20221;-56
2022/06/05 00:04:34;;;;;;;2.70;2.60;;;20.60;45.20;;;;;;4981844;28;20295;-56
2022/06/05 00:07:25;;;;;;;3.57;3.37;;;20.60;45.20;;;;;;4981958;28;20478;-56
2022/06/05 00:10:09;;;;;;;2.77;2.67;;;20.60;45.20;;;;;;4977002;28;20426;-56
2022/06/05 00:13:06;;;;;;;3.47;3.33;;;20.60;45.20;;;;;;4980501;28;20445;-56
2022/06/05 00:15:33;;;;;;;3.00;2.90;;;20.60;45.20;;;;;;4959471;28;20496;-56
2022/06/05 00:17:59;;;;;;;2.90;2.80;;;20.60;45.20;;;;;;4982252;28;20490;-56
2022/06/05 00:20:24;;;;;;;3.13;3.03;;;20.60;45.20;;;;;;4980850;28;20566;-56
2022/06/05 00:22:50;;;;;;;3.10;3.00;;;20.60;45.20;;;;;;4980908;28;20529;-56
2022/06/05 00:25:16;;;;;;;3.00;2.90;;;20.60;45.20;;;;;;4981021;28;20248;-56
2022/06/05 00:27:41;;;;;;;2.97;2.87;;;20.60;45.20;;;;;;4977593;28;20228;-56
2022/06/05 00:30:21;;;;;;;3.07;2.87;;;20.60;45.20;;;;;;4981221;28;20346;-56
2022/06/05 00:33:02;;;;;;;3.73;3.53;;;20.60;45.20;;;;;;4978582;28;20248;-56
2022/06/05 00:35:33;;;;;;;3.07;2.87;;;20.60;45.20;;;;;;4977109;28;20452;-56
2022/06/05 00:38:23;;;;;;;3.33;3.23;;;20.60;45.20;;;;;;4977436;28;20498;-57
2022/06/05 00:41:26;;;;;;;3.60;3.40;;;20.60;45.20;;;;;;4980200;28;20543;-56
2022/06/05 00:43:54;;;;;;;2.90;2.80;;;20.60;45.20;;;;;;4976265;28;20452;-56
2022/06/05 00:46:23;;;;;;;3.00;2.90;;;20.60;45.20;;;;;;4981595;28;20463;-56
2022/06/05 00:48:49;;;;;;;3.10;3.00;;;20.60;45.20;;;;;;4986611;28;20979;-56
2022/06/05 00:51:15;;;;;;;3.40;3.20;;;20.60;45.20;;;;;;4983183;28;20454;-57
2022/06/05 00:53:40;;;;;;;3.37;3.17;;;20.60;45.20;;;;;;4982781;28;20851;-56
2022/06/05 00:56:10;;;;;;;2.93;2.80;;;20.60;45.20;;;;;;4984846;28;20213;-56
2022/06/05 00:58:36;;;;;;;3.10;3.00;;;20.60;45.20;;;;;;4984039;28;20620;-56
2022/06/05 01:01:02;;;;;;;4.03;3.30;;;20.60;45.20;;;;;;4984154;28;20459;-56
2022/06/05 01:03:27;;;;;;;3.70;3.50;;;20.60;45.20;;;;;;4981217;28;20227;-56
2022/06/05 01:05:53;;;;;;;3.63;3.43;;;20.60;45.20;;;;;;4987148;28;20233;-56
2022/06/05 01:08:19;;;;;;;3.30;3.20;;;20.60;45.20;;;;;;4984358;28;20224;-56
2022/06/05 01:11:06;;;;;;;3.83;3.63;;;20.60;45.20;;;;;;4985190;28;20299;-56
2022/06/05 01:13:56;;;;;;;2.90;2.80;;;20.60;45.20;;;;;;4983528;28;20282;-56
2022/06/05 01:16:30;;;;;;;2.87;2.77;;;20.60;45.20;;;;;;4980658;28;20455;-56
2022/06/05 01:19:16;;;;;;;3.67;3.47;;;20.60;45.20;;;;;;4984651;28;20429;-56
2022/06/05 01:22:19;;;;;;;3.67;3.47;;;20.60;45.20;;;;;;4985031;28;20800;-56
2022/06/05 01:25:02;;;;;;;3.33;3.13;;;20.60;45.20;;;;;;4987161;28;20496;-56
2022/06/05 01:27:33;;;;;;;3.10;2.90;;;20.60;45.20;;;;;;4982512;28;20524;-56
2022/06/05 01:30:20;;;;;;;3.37;3.27;;;20.60;45.20;;;;;;4982372;28;20446;-56
2022/06/05 01:32:58;;;;;;;3.63;3.43;;;20.60;45.20;;;;;;4983303;28;20451;-56
2022/06/05 01:35:42;;;;;;;3.00;2.90;;;20.60;45.20;;;;;;4980913;28;20463;-56
2022/06/05 01:38:13;;;;;;;3.10;3.00;;;20.60;45.20;;;;;;4982564;28;20537;-56
2022/06/05 01:40:46;;;;;;;3.17;3.07;;;20.60;45.20;;;;;;4984436;28;20960;-57
2022/06/05 01:43:15;;;;;;;2.90;2.80;;;20.60;45.20;;;;;;4980382;28;20422;-57
2022/06/05 01:45:49;;;;;;;2.90;2.77;;;20.60;45.20;;;;;;4982599;28;20533;-56
2022/06/05 01:48:23;;;;;;;3.67;3.47;;;20.60;45.20;;;;;;4982248;28;20458;-56
2022/06/05 01:50:54;;;;;;;3.37;3.17;;;20.60;45.20;;;;;;4986593;28;20429;-56
2022/06/05 01:53:37;;;;;;;3.40;3.30;;;20.60;45.20;;;;;;4984160;28;20450;-55
2022/06/05 01:56:09;;;;;;;3.60;3.40;;;20.60;45.20;;;;;;4985393;28;20513;-56
2022/06/05 01:58:39;;;;;;;3.53;3.33;;;20.60;45.20;;;;;;4983244;28;20478;-56
2022/06/05 02:01:12;;;;;;;3.40;3.20;;;20.60;45.20;;;;;;4982775;28;20590;-56
2022/06/05 02:03:44;;;;;;;3.13;3.03;;;20.60;45.20;;;;;;4986845;28;20939;-56
2022/06/05 02:06:15;;;;;;;3.50;3.40;;;20.60;45.20;;;;;;4985393;28;20532;-56
2022/06/05 02:08:46;;;;;;;3.70;3.50;;;20.60;45.20;;;;;;4984570;28;20489;-56
2022/06/05 02:11:25;;;;;;;3.53;3.33;;;20.60;45.20;;;;;;4982517;28;20506;-56
2022/06/05 02:13:54;;;;;;;3.40;3.20;;;20.60;45.20;;;;;;4996934;28;20438;-56
2022/06/05 02:16:20;;;;;;;3.47;3.30;;;20.60;45.20;;;;;;4983983;28;20452;-56
2022/06/05 02:18:46;;;;;;;3.40;3.30;;;20.60;45.20;;;;;;4983041;28;20533;-56
2022/06/05 02:21:12;;;;;;;3.30;3.20;;;20.60;45.20;;;;;;4983678;28;20662;-56
2022/06/05 02:23:39;;;;;;;3.53;3.40;;;20.60;45.20;;;;;;4983424;28;20676;-56
2022/06/05 02:26:07;;;;;;;2.97;2.87;;;20.60;45.20;;;;;;4985921;28;20778;-56
2022/06/05 02:28:33;;;;;;;3.50;3.30;;;20.60;45.20;;;;;;4983949;28;20975;-56
2022/06/05 02:31:13;;;;;;;3.67;3.47;;;20.60;45.20;;;;;;4983437;28;20447;-56
2022/06/05 02:33:42;;;;;;;3.53;3.33;;;20.60;45.20;;;;;;4982663;28;20710;-56
2022/06/05 02:36:34;;;;;;;3.57;3.43;;;20.60;45.20;;;;;;4982256;28;20452;-56
2022/06/05 02:39:12;;;;;;;3.83;3.63;;;20.60;45.20;;;;;;4985183;28;20461;-56
2022/06/05 02:41:50;;;;;;;3.40;3.30;;;20.60;45.20;;;;;;4983007;28;20460;-56
2022/06/05 02:44:29;;;;;;;3.33;3.20;;;20.60;45.20;;;;;;4981871;28;20454;-56
2022/06/05 02:47:16;;;;;;;3.67;3.37;;;20.60;45.20;;;;;;4982820;28;20455;-56
2022/06/05 02:49:45;;;;;;;3.30;3.20;;;20.60;45.20;;;;;;4979303;28;20540;-56
2022/06/05 02:52:11;;;;;;;3.30;3.20;;;20.60;45.20;;;;;;4982569;28;20483;-56
2022/06/05 02:54:47;;;;;;;3.13;3.03;;;20.60;45.20;;;;;;4982871;28;20496;-56
2022/06/05 02:57:13;;;;;;;3.30;3.20;;;20.60;45.20;;;;;;4980392;28;20438;-56
2022/06/05 02:59:40;;;;;;;3.70;3.50;;;20.60;45.20;;;;;;4983576;28;20589;-56
2022/06/05 03:04:49;;;;;;;3.77;3.57;;;20.60;45.20;;;;;;4980607;28;21019;-56
2022/06/05 03:07:15;;;;;;;3.63;3.43;;;20.60;45.20;;;;;;4981300;28;20529;-56
2022/06/05 03:09:41;;;;;;;3.37;3.20;;;20.60;45.20;;;;;;4979875;28;20824;-56
2022/06/05 03:12:07;;;;;;;4.10;3.90;;;20.60;45.20;;;;;;4980087;28;20451;-56
2022/06/05 03:14:33;;;;;;;3.50;3.30;;;20.60;45.20;;;;;;4979346;28;20225;-56
2022/06/05 03:16:58;;;;;;;3.93;3.73;;;20.60;45.20;;;;;;4978612;28;20444;-56
2022/06/05 03:19:24;;;;;;;4.00;3.80;;;20.60;45.20;;;;;;4982713;28;20590;-56
2022/06/05 03:21:50;;;;;;;3.60;3.40;;;20.60;46.00;;;;;;4980310;28;20236;-56
2022/06/05 03:24:16;;;;;;;3.87;3.67;;;20.60;45.20;;;;;;4982964;28;20680;-56
2022/06/05 03:26:42;;;;;;;3.93;3.73;;;20.60;45.20;;;;;;4985725;28;20282;-56
2022/06/05 03:29:08;;;;;;;3.73;3.53;;;20.60;45.20;;;;;;4977790;28;20956;-56
2022/06/05 03:31:37;;;;;;;4.50;4.30;;;20.60;45.20;;;;;;4986227;28;20226;-56
2022/06/05 03:34:03;;;;;;;3.80;3.60;;;20.60;45.20;;;;;;4984411;28;20227;-56
2022/06/05 03:36:29;;;;;;;3.57;3.37;;;20.60;45.20;;;;;;4982878;28;20454;-56
2022/06/05 03:38:54;;;;;;;3.13;3.03;;;20.60;45.20;;;;;;4981153;28;20229;-56
2022/06/05 03:41:20;;;;;;;3.80;3.60;;;20.60;45.20;;;;;;4982639;28;20339;-56
2022/06/05 03:43:46;;;;;;;3.53;3.40;;;20.60;46.00;;;;;;4981524;28;20556;-56
2022/06/05 03:46:14;;;;;;;3.37;3.27;;;20.60;45.20;;;;;;4985846;28;20236;-56
2022/06/05 03:48:40;;;;;;;3.90;3.70;;;20.60;45.20;;;;;;4981251;28;20557;-56
2022/06/05 03:51:15;;;;;;;3.20;3.10;;;20.60;45.20;;;;;;4982795;28;20470;-56
2022/06/05 03:53:40;;;;;;;3.80;3.60;;;20.60;45.20;;;;;;4980980;28;21020;-56
2022/06/05 03:56:15;;;;;;;3.83;3.63;;;20.60;45.20;;;;;;4981705;28;20450;-56
2022/06/05 03:58:41;;;;;;;3.50;3.30;;;20.60;45.20;;;;;;4980353;28;20221;-56
2022/06/05 04:01:08;;;;;;;3.60;3.40;;;20.60;45.30;;;;;;4982907;28;20422;-56
2022/06/05 04:03:34;;;;;;;3.80;3.60;;;20.60;45.20;;;;;;4981173;28;20221;-56
2022/06/05 04:06:00;;;;;;;3.80;3.60;;;20.60;45.20;;;;;;4982807;28;20995;-56
2022/06/05 04:08:26;;;;;;;3.47;3.27;;;20.60;45.20;;;;;;4980037;28;20709;-56
2022/06/05 04:10:51;;;;;;;3.23;3.13;;;20.60;45.20;;;;;;4983426;28;20234;-57
2022/06/05 04:13:17;;;;;;;3.97;3.77;;;20.60;45.20;;;;;;4980638;28;20266;-57
2022/06/05 04:15:42;;;;;;;3.80;3.60;;;20.60;45.20;;;;;;4981444;28;20307;-56
2022/06/05 04:18:08;;;;;;;4.17;3.97;;;20.60;45.20;;;;;;4978167;28;20223;-56
2022/06/05 04:20:37;;;;;;;4.17;3.97;;;20.60;45.20;;;;;;4980894;28;20240;-56
2022/06/05 04:23:02;;;;;;;3.67;3.57;;;20.60;45.20;;;;;;4980665;28;20436;-55
2022/06/05 04:25:28;;;;;;;3.87;3.67;;;20.60;45.20;;;;;;4977363;28;20482;-56
2022/06/05 04:27:56;;;;;;;3.60;3.40;;;20.60;45.20;;;;;;4977753;28;20227;-56
2022/06/05 04:30:22;;;;;;;3.30;3.20;;;20.60;45.20;;;;;;4983943;28;20713;-57
2022/06/05 04:32:48;;;;;;;3.23;3.13;;;20.60;45.20;;;;;;4979206;28;20463;-55
2022/06/05 04:35:13;;;;;;;3.83;3.63;;;20.60;45.20;;;;;;4987847;28;20458;-56
2022/06/05 04:37:39;;;;;;;3.93;3.73;;;20.60;45.20;;;;;;4986888;28;20348;-56
2022/06/05 04:40:05;;;;;;;3.40;3.30;;;20.60;45.20;;;;;;4980977;28;20216;-55
2022/06/05 04:42:31;;;;;;;4.03;3.83;;;20.60;45.20;;;;;;4995167;28;20356;-56
2022/06/05 04:44:58;;;;;;;3.77;3.57;;;20.60;45.20;;;;;;4980418;28;20482;-57
2022/06/05 04:47:23;;;;;;;4.20;3.90;;;20.60;45.20;;;;;;4978473;28;20433;-57
2022/06/05 04:49:49;;;;;;;3.53;3.33;;;20.60;45.20;;;;;;4979716;28;20455;-57
2022/06/05 04:52:15;;;;;;;3.70;3.50;;;20.60;45.20;;;;;;4984038;28;20220;-56
2022/06/05 04:54:41;;;;;;;3.73;3.53;;;20.60;45.20;;;;;;4980834;28;20302;-56
2022/06/05 04:57:07;;;;;;;3.90;3.70;;;20.60;45.20;;;;;;4981489;28;20792;-57
2022/06/05 04:59:32;;;;;;;3.70;3.50;;;20.60;45.20;;;;;;4977971;28;20686;-56
2022/06/05 05:01:58;;;;;;;3.30;3.20;;;20.60;45.20;;;;;;4982742;28;20654;-56
2022/06/05 05:04:24;;;;;;;4.10;3.90;;;20.70;45.30;;;;;;4983999;28;20227;-56
2022/06/05 05:06:49;;;;;;;4.10;3.90;;;20.70;45.30;;;;;;4983981;28;20807;-56
2022/06/05 05:09:15;;;;;;;3.93;3.73;;;20.70;45.30;;;;;;4979192;28;20451;-56
2022/06/05 05:11:41;;;;;;;3.80;3.60;;;20.60;45.20;;;;;;4981957;28;20217;-56
2022/06/05 05:14:08;;;;;;;3.77;3.57;;;20.60;45.20;;;;;;4977788;28;20311;-56
2022/06/05 05:16:34;;;;;;;3.93;3.77;;;20.60;45.20;;;;;;4979172;28;20235;-56
2022/06/05 05:18:59;;;;;;;4.10;3.90;;;20.60;45.20;;;;;;4981195;28;20417;-56
2022/06/05 05:21:26;;;;;;;4.00;3.80;;;20.60;45.20;;;;;;4981412;28;20274;-56
2022/06/05 05:23:53;;;;;;;3.60;3.40;;;20.60;45.20;;;;;;4981883;28;20224;-56
2022/06/05 05:26:24;;;;;;;3.77;3.57;;;20.60;45.20;;;;;;4982878;28;20450;-56
2022/06/05 05:28:51;;;;;;;3.87;3.67;;;20.60;45.20;;;;;;4979560;28;21042;-56
2022/06/05 05:31:26;;;;;;;4.00;3.80;;;20.60;45.20;;;;;;4982548;28;20481;-56
2022/06/05 05:33:52;;;;;;;4.00;3.80;;;20.60;45.20;;;;;;4979450;28;20471;-56
2022/06/05 05:36:20;;;;;;;3.97;3.77;;;20.60;45.20;;;;;;4979963;28;20445;-56
2022/06/05 05:44:16;;;;;;;4.20;4.00;;;20.60;45.20;;;;;;4980055;28;20454;-55
2022/06/05 05:46:43;;;;;;;3.80;3.60;;;20.60;45.20;;;;;;4985276;28;20428;-56
2022/06/05 05:49:10;;;;;;;3.73;3.53;;;20.60;45.20;;;;;;4982073;28;20225;-56
2022/06/05 05:51:37;;;;;;;4.20;4.00;;;20.60;45.20;;;;;;4984242;28;20428;-56
2022/06/05 05:54:03;;;;;;;3.67;3.47;;;20.60;46.00;;;;;;4982975;28;20457;-56
2022/06/05 05:56:29;;;;;;;4.30;4.10;;;20.70;45.30;;;;;;4982057;28;20459;-56
2022/06/05 05:58:54;;;;;;;3.73;3.53;;;20.70;45.30;;;;;;4985578;28;20502;-56
2022/06/05 06:01:20;;;;;;;3.97;3.77;;;20.70;45.30;;;;;;4979857;28;20730;-56
2022/06/05 06:03:46;;;;;;;3.50;3.40;;;20.70;45.30;;;;;;4981038;28;20223;-56
2022/06/05 06:06:11;;;;;;;3.67;3.57;;;20.70;45.30;;;;;;4982321;28;20677;-56
2022/06/05 06:08:37;;;;;;;4.30;4.10;;;20.70;45.30;;;;;;4978555;28;20221;-56
2022/06/05 06:11:03;;;;;;;3.50;3.40;;;20.70;45.30;;;;;;4980354;28;20224;-56
2022/06/05 06:13:29;;;;;;;3.80;3.60;;;20.70;45.30;;;;;;4982670;28;20236;-56
2022/06/05 06:15:55;;;;;;;3.97;3.87;;;20.70;45.20;;;;;;4996939;28;20290;-57
2022/06/05 06:18:21;;;;;;;3.67;3.47;;;20.70;45.30;;;;;;5002115;28;20462;-56
2022/06/05 06:20:47;;;;;;;4.33;4.03;;;20.70;45.30;;;;;;4985393;28;20224;-56
2022/06/05 06:23:14;;;;;;;3.93;3.73;;;20.70;45.30;;;;;;4984841;28;20451;-56
2022/06/05 06:25:40;;;;;;;3.90;3.70;;;20.70;45.30;;;;;;4985640;28;20693;-56
2022/06/05 06:28:06;;;;;;;4.33;4.13;;;20.70;45.30;;;;;;4983415;28;20466;-56
2022/06/05 06:30:33;;;;;;;4.37;4.17;;;20.70;45.30;;;;;;4985779;28;20225;-56
2022/06/05 06:32:59;;;;;;;4.30;4.10;;;20.70;45.30;;;;;;4985654;28;20458;-56
2022/06/05 06:35:24;;;;;;;4.10;3.90;;;20.70;45.30;;;;;;4983369;28;20455;-56
2022/06/05 06:37:50;;;;;;;4.27;4.07;;;20.70;45.30;;;;;;4981283;28;20454;-56
2022/06/05 06:40:16;;;;;;;4.03;3.83;;;20.70;45.30;;;;;;5001426;28;20286;-56
2022/06/05 06:42:41;;;;;;;3.80;3.60;;;20.70;45.30;;;;;;4981492;28;20228;-56
2022/06/05 06:45:08;;;;;;;4.30;4.10;;;20.70;45.30;;;;;;4980883;28;20225;-56
2022/06/05 06:47:34;;;;;;;4.63;4.43;;;20.70;45.30;;;;;;4982490;28;20223;-56
2022/06/05 06:49:59;;;;;;;3.90;3.70;;;20.70;46.00;;;;;;4982636;28;20968;-56
2022/06/05 06:52:25;;;;;;;4.73;4.53;;;20.70;45.30;;;;;;4983759;28;20451;-56
2022/06/05 06:54:52;;;;;;;4.10;3.90;;;20.70;45.30;;;;;;4982071;28;20237;-56
2022/06/05 06:57:18;;;;;;;4.30;4.10;;;20.70;45.30;;;;;;5001384;28;20259;-56
2022/06/05 06:59:44;;;;;;;3.70;3.50;;;20.70;45.30;;;;;;4980911;28;20486;-56
2022/06/05 07:02:09;;;;;;;3.97;3.77;;;20.70;45.30;;;;;;4981470;28;20657;-60
2022/06/05 07:04:35;;;;;;;3.60;3.40;;;20.70;46.00;;;;;;4980098;28;20244;-56
2022/06/05 07:07:00;;;;;;;3.97;3.77;;;20.70;45.30;;;;;;4981994;28;20320;-56
2022/06/05 07:09:26;;;;;;;4.10;3.90;;;20.70;45.30;;;;;;4983391;28;20224;-56
2022/06/05 07:11:52;;;;;;;4.00;3.80;;;20.70;45.30;;;;;;4983610;28;20665;-56
2022/06/05 07:14:17;;;;;;;4.17;3.97;;;20.70;45.30;;;;;;4978617;28;20228;-56
2022/06/05 07:16:44;;;;;;;3.70;3.60;;;20.70;45.30;;;;;;4979364;28;20224;-56
2022/06/05 07:19:09;;;;;;;3.90;3.70;;;20.70;45.30;;;;;;4978161;28;20267;-56
2022/06/05 07:21:35;;;;;;;3.87;3.67;;;20.70;45.30;;;;;;4977544;28;20528;-56
2022/06/05 07:24:01;;;;;;;4.10;3.90;;;20.80;45.50;;;;;;4980476;28;20331;-56
2022/06/05 07:26:30;;;;;;;4.37;4.17;;;20.70;45.30;;;;;;4979075;28;20237;-57
2022/06/05 07:28:57;;;;;;;4.20;4.00;;;20.70;45.30;;;;;;4983340;28;20221;-56
2022/06/05 07:31:26;;;;;;;4.10;3.90;;;20.70;45.30;;;;;;4985782;28;20493;-56
2022/06/05 07:33:51;;;;;;;4.10;3.90;;;20.70;45.30;;;;;;4999902;28;20986;-56
2022/06/05 07:36:20;;;;;;;4.13;3.93;;;20.70;45.30;;;;;;4982307;28;20443;-56
2022/06/05 07:38:47;;;;;;;4.30;4.10;;;20.70;45.30;;;;;;4980653;28;20296;-55
2022/06/05 07:41:26;;;;;;;4.50;4.30;;;20.70;45.30;;;;;;4982021;28;20796;-55
2022/06/05 07:43:52;;;;;;;4.70;4.50;;;20.70;45.30;;;;;;4980176;28;20451;-56
2022/06/05 07:46:18;;;;;;;4.80;4.60;;;20.70;46.10;;;;;;4983299;28;20441;-56
2022/06/05 07:48:44;;;;;;;4.30;4.10;;;20.70;45.30;;;;;;4983960;28;20217;-56
2022/06/05 07:56:44;;;;;;;4.20;4.00;;;20.80;45.50;;;;;;4979884;28;20534;-56
2022/06/05 07:59:10;;;;;;;4.93;4.73;;;20.70;45.50;;;;;;4982117;28;20518;-57
2022/06/05 08:01:36;;;;;;;4.27;4.07;;;20.70;45.40;;;;;;4980838;28;20235;-57
2022/06/05 08:04:06;;;;;;;4.70;4.50;;;20.80;45.50;;;;;;4978531;28;20446;-56
2022/06/05 08:06:34;;;;;;;4.40;4.20;;;20.70;45.30;;;;;;4983104;28;20320;-56
2022/06/05 08:09:00;;;;;;;4.33;4.13;;;20.70;45.50;;;;;;4980509;28;20675;-56
2022/06/05 08:11:26;;;;;;;4.47;4.27;;;20.80;45.50;;;;;;4998426;28;20413;-56
2022/06/05 08:13:51;;;;;;;4.00;3.80;;;20.80;45.60;;;;;;4981566;28;20458;-57
2022/06/05 08:16:17;;;;;;;4.30;4.10;;;20.80;45.60;;;;;;4981151;28;20298;-56
2022/06/05 08:18:43;;;;;;;4.13;3.90;;;20.70;45.50;;;;;;4982121;28;20227;-56
2022/06/05 08:21:09;;;;;;;4.37;4.17;;;20.70;45.50;;;;;;4980665;28;20855;-56
2022/06/05 08:23:35;;;;;;;4.27;4.07;;;20.70;45.60;;;;;;4981904;28;20230;-56
2022/06/05 08:26:01;;;;;;;4.97;4.77;;;20.70;45.50;;;;;;4981802;28;20233;-56
2022/06/05 08:28:27;;;;;;;4.30;4.10;;;20.70;45.50;;;;;;4981592;28;20217;-56
2022/06/05 08:30:53;;;;;;;4.80;4.60;;;20.80;45.60;;;;;;4981657;28;20767;-56
2022/06/05 08:33:20;;;;;;;4.97;4.77;;;20.70;45.60;;;;;;4981228;28;20228;-56
2022/06/05 08:35:46;;;;;;;4.13;3.93;;;20.70;45.50;;;;;;4993636;28;20264;-57
2022/06/05 08:43:55;;;;;;;4.70;4.50;;;20.70;45.60;;;;;;4982485;28;20949;-56
2022/06/05 08:46:27;;;;;;;4.33;4.13;;;20.70;45.50;;;;;;4979626;28;20505;-57
2022/06/05 08:49:11;;;;;;;4.50;4.30;;;20.70;45.60;;;;;;4978539;28;20565;-56
2022/06/05 08:51:47;;;;;;;4.57;4.33;;;20.70;45.50;;;;;;4981496;28;20461;-57
2022/06/05 08:54:21;;;;;;;4.53;4.33;;;20.70;45.60;;;;;;4984795;28;20446;-57
2022/06/05 08:56:52;;;;;;;4.30;4.10;;;20.70;45.60;;;;;;4977832;28;20497;-57
2022/06/05 08:59:24;;;;;;;4.43;4.23;;;20.70;45.50;;;;;;4979012;28;20462;-57
2022/06/05 09:02:25;;;;;;;4.90;4.70;;;20.70;45.50;;;;;;4993008;28;20455;-58
2022/06/05 09:05:04;;;;;;;6.57;5.00;;;20.70;45.60;;;;;;4981066;28;20424;-57
2022/06/05 09:07:36;;;;;;;5.30;4.90;;;20.70;45.50;;;;;;4981102;28;20470;-57
2022/06/05 09:10:13;;;;;;;5.90;5.20;;;20.70;45.70;;;;;;4979918;28;20500;-57
2022/06/05 09:12:47;;;;;;;10.07;5.33;;;20.70;45.70;;;;;;4983091;28;20446;-57
2022/06/05 09:15:24;;;;;;;16.30;5.50;;;20.70;45.70;;;;;;4982807;28;20465;-57
2022/06/05 09:17:55;;;;;;;9.70;5.40;;;20.80;45.90;;;;;;4983344;28;20577;-58
2022/06/05 09:20:44;;;;;;;7.57;5.30;;;20.80;46.00;;;;;;4985500;28;20808;-57
2022/06/05 09:23:34;;;;;;;6.33;5.67;;;20.80;46.00;;;;;;4984834;28;20838;-57
2022/06/05 09:26:12;;;;;;;12.00;7.10;;;20.80;45.90;;;;;;4979473;28;21248;-57
2022/06/05 09:29:07;;;;;;;18.83;11.80;;;20.80;46.00;;;;;;4984297;28;20934;-57
2022/06/05 09:31:46;;;;;;;23.70;12.60;;;20.90;46.10;;;;;;4978556;28;20445;-56
2022/06/05 09:34:14;;;;;;;20.60;13.07;;;20.80;46.10;;;;;;4985059;28;20454;-57
2022/06/05 09:36:48;;;;;;;25.93;12.20;;;20.80;46.10;;;;;;4983007;28;20439;-56
2022/06/05 09:39:20;;;;;;;27.43;14.70;;;20.90;46.30;;;;;;4984617;28;20487;-57
2022/06/05 09:42:29;;;;;;;30.70;15.50;;;20.90;46.40;;;;;;4983985;28;20827;-57
2022/06/05 09:45:13;;;;;;;31.17;15.93;;;20.90;46.40;;;;;;4985950;28;20549;-57
2022/06/05 09:48:01;;;;;;;29.37;14.53;;;20.90;46.50;;;;;;4983281;28;20490;-56
2022/06/05 09:50:28;;;;;;;26.20;14.67;;;20.90;46.50;;;;;;4984624;28;20458;-56
2022/06/05 09:52:54;;;;;;;21.90;15.40;;;20.80;46.50;;;;;;4984713;28;20446;-56
2022/06/05 09:55:32;;;;;;;25.60;15.47;;;20.90;46.60;;;;;;4983556;28;20755;-56
2022/06/05 10:00:49;;;;;;;20.10;11.97;;;20.80;46.60;;;;;;4982985;28;20466;-56
2022/06/05 10:03:37;;;;;;;18.43;12.50;;;20.80;46.60;;;;;;4981169;28;20496;-56
2022/06/05 10:06:17;;;;;;;21.43;12.70;;;20.80;46.60;;;;;;4984340;28;20934;-56
2022/06/05 10:08:48;;;;;;;24.73;13.30;;;20.80;46.60;;;;;;4982104;28;20458;-56
2022/06/05 10:11:40;;;;;;;20.73;13.20;;;20.80;46.60;;;;;;4978744;28;20844;-56
2022/06/05 10:14:41;;;;;;;16.20;12.10;;;20.80;46.60;;;;;;4980190;28;20487;-56
2022/06/05 10:17:58;;;;;;;16.13;11.27;;;20.80;46.60;;;;;;4983187;28;20466;-56
2022/06/05 10:20:42;;;;;;;16.83;11.40;;;20.80;46.60;;;;;;4960715;28;20450;-56
2022/06/05 10:23:24;;;;;;;19.07;12.60;;;20.80;46.70;;;;;;4983506;28;20434;-57
2022/06/05 10:26:10;;;;;;;15.63;11.77;;;20.80;46.70;;;;;;4988819;28;20553;-56
2022/06/05 10:28:41;;;;;;;17.00;11.47;;;20.80;46.70;;;;;;4982555;28;20436;-56
2022/06/05 10:31:10;;;;;;;14.90;12.07;;;20.80;46.70;;;;;;4980687;28;20506;-56
2022/06/05 10:34:14;;;;;;;15.60;11.67;;;20.80;46.70;;;;;;4986610;28;20455;-56
2022/06/05 10:37:22;;;;;;;15.53;11.67;;;20.80;46.70;;;;;;4982789;28;20439;-56
2022/06/05 10:40:16;;;;;;;13.60;9.83;;;20.80;46.80;;;;;;4962345;28;20534;-56
2022/06/05 10:43:01;;;;;;;11.57;10.30;;;20.80;46.80;;;;;;4982161;28;20443;-56
2022/06/05 10:45:49;;;;;;;13.77;10.30;;;20.80;46.80;;;;;;4980607;28;20516;-56
2022/06/05 10:48:26;;;;;;;15.50;10.30;;;20.80;46.80;;;;;;4980945;28;20455;-56
2022/06/05 10:51:01;;;;;;;14.10;11.13;;;20.80;46.80;;;;;;4980158;28;20546;-56
2022/06/05 10:53:43;;;;;;;11.67;10.33;;;20.80;46.90;;;;;;4984239;28;20462;-56
2022/06/05 10:56:45;;;;;;;12.30;10.97;;;20.80;46.90;;;;;;4981426;28;20457;-56
2022/06/05 10:59:16;;;;;;;10.47;9.20;;;20.80;46.90;;;;;;4970948;28;20434;-56
2022/06/05 11:02:17;;;;;;;10.17;9.17;;;20.80;46.90;;;;;;4980809;28;20545;-56
2022/06/05 11:04:50;;;;;;;10.97;9.70;;;20.80;46.90;;;;;;4979743;28;20590;-56
2022/06/05 11:07:49;;;;;;;10.33;9.23;;;20.80;46.90;;;;;;4983337;28;20999;-56
2022/06/05 11:13:39;;;;;;;9.73;8.73;;;20.80;46.90;;;;;;4977599;28;20426;-56
2022/06/05 11:13:47;;;;;;;11.57;9.60;;;20.80;46.90;;;;;;4980527;28;20486;-56
2022/06/05 11:16:12;;;;;;;10.57;8.90;;;20.80;46.90;;;;;;4972532;28;20814;-56
2022/06/05 11:19:10;;;;;;;9.87;9.00;;;20.80;46.90;;;;;;4980668;28;20521;-56
2022/06/05 11:21:37;;;;;;;9.00;7.83;;;20.80;46.90;;;;;;4981014;28;20233;-56
2022/06/05 11:24:07;;;;;;;9.73;8.50;;;20.80;46.90;;;;;;4982661;28;20462;-57
2022/06/05 11:26:47;;;;;;;13.10;9.43;;;20.80;46.90;;;;;;4981728;28;20458;-56
2022/06/05 11:29:34;;;;;;;9.43;8.63;;;20.80;46.90;;;;;;4978326;28;20432;-55
2022/06/05 11:32:21;;;;;;;9.43;8.63;;;20.80;47.00;;;;;;4982221;28;21032;-55
2022/06/05 11:35:27;;;;;;;8.67;7.87;;;20.80;47.00;;;;;;4983357;28;20820;-56
2022/06/05 11:38:02;;;;;;;8.87;8.00;;;20.80;47.00;;;;;;4975221;28;20466;-56
2022/06/05 11:40:46;;;;;;;9.50;8.53;;;20.80;47.00;;;;;;4981278;28;20998;-56
2022/06/05 11:43:34;;;;;;;8.00;7.40;;;20.80;47.10;;;;;;4974808;28;20455;-56
2022/06/05 11:46:14;;;;;;;8.70;7.80;;;20.80;47.00;;;;;;4981901;28;21020;-56
2022/06/05 11:48:50;;;;;;;14.80;8.63;;;20.80;47.00;;;;;;4982009;28;20434;-56
2022/06/05 11:51:30;;;;;;;9.00;7.97;;;20.80;50.70;;;;;;4981294;28;20455;-57
2022/06/05 11:54:25;;;;;;;8.20;7.50;;;20.80;50.50;;;;;;4983221;28;20458;-57
2022/06/05 11:57:22;;;;;;;7.47;6.80;;;20.80;49.50;;;;;;4983772;28;20494;-57
2022/06/05 11:59:50;;;;;;;7.50;6.90;;;20.80;50.00;;;;;;4982137;28;20470;-57
2022/06/05 12:02:40;;;;;;;7.10;6.60;;;20.80;50.10;;;;;;4981682;28;20455;-57
2022/06/05 12:05:08;;;;;;;8.27;7.77;;;20.80;49.20;;;;;;4979694;28;20890;-58
2022/06/05 12:07:34;;;;;;;9.93;7.27;;;20.80;49.30;;;;;;4983132;28;20531;-58
2022/06/05 12:10:06;;;;;;;8.27;7.57;;;20.80;49.90;;;;;;4981524;28;20866;-57
2022/06/05 12:13:02;;;;;;;7.63;7.13;;;20.90;49.00;;;;;;4980146;28;20304;-57
2022/06/05 12:16:00;;;;;;;7.63;7.03;;;20.80;48.50;;;;;;4978956;28;20454;-56
2022/06/05 12:18:45;;;;;;;8.03;7.50;;;20.80;48.20;;;;;;4976811;28;20805;-57
2022/06/05 12:21:43;;;;;;;7.87;7.17;;;20.90;49.20;;;;;;4978597;28;20482;-58
2022/06/05 12:24:23;;;;;;;8.50;7.70;;;20.90;49.30;;;;;;4970066;28;20428;-58
2022/06/05 12:26:59;;;;;;;8.00;7.33;;;20.90;49.10;;;;;;4981066;28;20547;-57
2022/06/05 12:29:44;;;;;;;7.90;7.37;;;20.90;49.30;;;;;;4979971;28;20783;-57
2022/06/05 12:32:24;;;;;;;7.57;7.07;;;20.90;49.30;;;;;;4978753;28;20554;-57
2022/06/05 12:35:14;;;;;;;7.37;6.83;;;20.90;50.60;;;;;;4979428;28;20810;-56
2022/06/05 12:37:45;;;;;;;8.40;7.70;;;20.90;52.30;;;;;;4980808;28;20443;-57
2022/06/05 12:40:31;;;;;;;15.13;7.47;;;20.90;53.10;;;;;;4994676;28;20554;-57
2022/06/05 12:43:29;;;;;;;7.60;7.20;;;20.90;54.20;;;;;;4979964;28;20495;-57
2022/06/05 12:46:12;;;;;;;7.47;7.00;;;20.90;54.70;;;;;;4978334;28;20533;-58
2022/06/05 12:48:40;;;;;;;7.47;6.93;;;20.90;56.20;;;;;;4979336;28;20526;-58
2022/06/05 12:51:15;;;;;;;7.17;6.77;;;20.90;57.80;;;;;;4976514;28;20477;-58
2022/06/05 12:53:49;;;;;;;7.23;6.77;;;20.90;58.20;;;;;;4980607;28;20468;-58
2022/06/05 12:56:31;;;;;;;7.53;7.03;;;20.90;58.60;;;;;;4979218;28;20480;-58
2022/06/05 12:59:19;;;;;;;7.20;6.73;;;20.90;60.00;;;;;;4983042;28;20533;-57
2022/06/05 13:02:01;;;;;;;7.37;6.77;;;20.90;47.90;;;;;;4993287;28;20924;-57
2022/06/05 13:04:31;;;;;;;7.37;6.93;;;20.90;48.70;;;;;;4981563;28;20781;-58
2022/06/05 13:07:04;;;;;;;6.90;6.50;;;20.90;48.00;;;;;;4979892;28;20554;-57
2022/06/05 13:09:48;;;;;;;7.83;7.23;;;20.90;47.90;;;;;;4982890;28;20417;-57
2022/06/05 13:12:32;;;;;;;6.97;6.57;;;20.90;47.90;;;;;;4982799;28;20493;-57
2022/06/05 13:15:19;;;;;;;7.13;6.53;;;20.90;47.90;;;;;;4982772;28;20492;-57
2022/06/05 13:18:12;;;;;;;7.40;6.90;;;20.90;47.90;;;;;;4980102;28;20470;-57
2022/06/05 13:20:56;;;;;;;7.93;7.27;;;20.90;47.90;;;;;;4977952;28;20417;-57
2022/06/05 13:23:34;;;;;;;7.30;6.90;;;20.90;47.90;;;;;;4981014;28;20486;-57
2022/06/05 13:26:16;;;;;;;7.33;6.73;;;20.90;48.10;;;;;;4974972;28;20482;-57
2022/06/05 13:29:08;;;;;;;7.60;6.87;;;20.80;49.00;;;;;;4982010;28;20517;-57
2022/06/05 13:32:09;;;;;;;7.17;6.67;;;20.90;49.30;;;;;;4996224;28;20451;-57
2022/06/05 13:35:10;;;;;;;7.70;7.30;;;20.90;50.70;;;;;;4981564;28;20446;-57
2022/06/05 13:37:50;;;;;;;7.43;6.93;;;20.90;50.90;;;;;;4977362;28;20545;-57
2022/06/05 13:40:25;;;;;;;7.40;7.10;;;20.90;52.30;;;;;;4978779;28;20483;-57
2022/06/05 13:42:52;;;;;;;7.03;6.73;;;20.90;54.80;;;;;;4981056;28;20473;-57